sensor_id;sensor_type;location;lat;lon;timestamp;temperature;humidity
44166;DHT22;30476;53.468;9.826;2022-11-04T00:01:47;13.20;97.90
44166;DHT22;30476;53.468;9.826;2022-11-04T00:04:15;13.20;97.90
44166;DHT22;30476;53.468;9.826;2022-11-04T00:06:41;13.20;98.00
44166;DHT22;30476;53.468;9.826;2022-11-04T00:09:09;13.20;98.00
44166;DHT22;30476;53.468;9.826;2022-11-04T00:11:35;13.30;98.00
44166;DHT22;30476;53.468;9.826;2022-11-04T00:14:20;13.20;98.10
44166;DHT22;30476;53.468;9.826;2022-11-04T00:16:46;13.20;98.10
44166;DHT22;30476;53.468;9.826;2022-11-04T00:19:31;13.20;98.20
44166;DHT22;30476;53.468;9.826;2022-11-04T00:22:17;13.20;98.30
44166;DHT22;30476;53.468;9.826;2022-11-04T00:25:15;13.20;98.80
44166;DHT22;30476;53.468;9.826;2022-11-04T00:28:08;13.20;98.60
44166;DHT22;30476;53.468;9.826;2022-11-04T00:30:55;13.20;98.70
44166;DHT22;30476;53.468;9.826;2022-11-04T00:33:21;13.20;98.70
44166;DHT22;30476;53.468;9.826;2022-11-04T00:35:55;13.20;98.80
44166;DHT22;30476;53.468;9.826;2022-11-04T00:38:23;13.20;99.00
44166;DHT22;30476;53.468;9.826;2022-11-04T00:40:49;13.20;99.10
44166;DHT22;30476;53.468;9.826;2022-11-04T00:43:15;13.10;99.10
44166;DHT22;30476;53.468;9.826;2022-11-04T00:45:41;13.10;99.10
44166;DHT22;30476;53.468;9.826;2022-11-04T00:48:07;13.10;99.20
44166;DHT22;30476;53.468;9.826;2022-11-04T00:50:33;13.10;99.20
44166;DHT22;30476;53.468;9.826;2022-11-04T00:53:01;13.10;99.30
44166;DHT22;30476;53.468;9.826;2022-11-04T00:55:27;13.00;99.40
44166;DHT22;30476;53.468;9.826;2022-11-04T00:57:53;13.10;99.40
44166;DHT22;30476;53.468;9.826;2022-11-04T01:00:20;13.10;99.40
44166;DHT22;30476;53.468;9.826;2022-11-04T01:02:46;13.10;99.40
44166;DHT22;30476;53.468;9.826;2022-11-04T01:05:12;13.10;99.50
44166;DHT22;30476;53.468;9.826;2022-11-04T01:07:38;13.20;99.60
44166;DHT22;30476;53.468;9.826;2022-11-04T01:10:04;13.10;99.60
44166;DHT22;30476;53.468;9.826;2022-11-04T01:12:31;13.20;99.60
44166;DHT22;30476;53.468;9.826;2022-11-04T01:14:57;13.20;99.60
44166;DHT22;30476;53.468;9.826;2022-11-04T01:17:24;13.20;99.70
44166;DHT22;30476;53.468;9.826;2022-11-04T01:19:49;13.20;99.70
44166;DHT22;30476;53.468;9.826;2022-11-04T01:22:15;13.20;99.70
44166;DHT22;30476;53.468;9.826;2022-11-04T01:24:41;13.30;99.70
44166;DHT22;30476;53.468;9.826;2022-11-04T01:27:07;13.20;99.70
44166;DHT22;30476;53.468;9.826;2022-11-04T01:29:33;13.20;99.70
44166;DHT22;30476;53.468;9.826;2022-11-04T01:31:58;13.30;99.60
44166;DHT22;30476;53.468;9.826;2022-11-04T01:34:24;13.30;99.70
44166;DHT22;30476;53.468;9.826;2022-11-04T01:36:50;13.30;99.70
44166;DHT22;30476;53.468;9.826;2022-11-04T01:39:16;13.30;99.70
44166;DHT22;30476;53.468;9.826;2022-11-04T01:41:42;13.30;99.70
44166;DHT22;30476;53.468;9.826;2022-11-04T01:44:46;13.30;99.70
44166;DHT22;30476;53.468;9.826;2022-11-04T01:49:41;13.30;99.60
44166;DHT22;30476;53.468;9.826;2022-11-04T01:52:12;13.30;99.60
44166;DHT22;30476;53.468;9.826;2022-11-04T01:54:41;13.30;99.60
44166;DHT22;30476;53.468;9.826;2022-11-04T01:57:13;13.30;99.50
44166;DHT22;30476;53.468;9.826;2022-11-04T01:59:41;13.30;99.50
44166;DHT22;30476;53.468;9.826;2022-11-04T02:02:07;13.30;99.50
44166;DHT22;30476;53.468;9.826;2022-11-04T02:04:34;13.30;99.50
44166;DHT22;30476;53.468;9.826;2022-11-04T02:07:07;13.30;99.70
44166;DHT22;30476;53.468;9.826;2022-11-04T02:09:35;13.30;99.80
44166;DHT22;30476;53.468;9.826;2022-11-04T02:12:02;13.30;99.80
44166;DHT22;30476;53.468;9.826;2022-11-04T02:14:47;13.30;99.90
44166;DHT22;30476;53.468;9.826;2022-11-04T02:25:30;13.20;99.90
44166;DHT22;30476;53.468;9.826;2022-11-04T02:30:28;13.30;99.90
44166;DHT22;30476;53.468;9.826;2022-11-04T02:33:17;13.30;99.90
44166;DHT22;30476;53.468;9.826;2022-11-04T02:35:49;13.30;99.90
44166;DHT22;30476;53.468;9.826;2022-11-04T02:38:32;13.30;99.90
44166;DHT22;30476;53.468;9.826;2022-11-04T02:46:37;13.30;99.90
44166;DHT22;30476;53.468;9.826;2022-11-04T02:49:29;13.30;99.90
44166;DHT22;30476;53.468;9.826;2022-11-04T02:52:04;13.30;99.90
44166;DHT22;30476;53.468;9.826;2022-11-04T02:54:44;13.30;99.90
44166;DHT22;30476;53.468;9.826;2022-11-04T02:57:15;13.30;99.90
44166;DHT22;30476;53.468;9.826;2022-11-04T02:59:48;13.30;99.90
44166;DHT22;30476;53.468;9.826;2022-11-04T03:02:19;13.30;99.90
44166;DHT22;30476;53.468;9.826;2022-11-04T03:04:49;13.20;99.90
44166;DHT22;30476;53.468;9.826;2022-11-04T03:07:20;13.20;99.90
44166;DHT22;30476;53.468;9.826;2022-11-04T03:09:52;13.20;99.90
44166;DHT22;30476;53.468;9.826;2022-11-04T03:12:23;13.20;99.90
44166;DHT22;30476;53.468;9.826;2022-11-04T03:14:56;13.20;99.90
44166;DHT22;30476;53.468;9.826;2022-11-04T03:17:45;13.20;99.90
44166;DHT22;30476;53.468;9.826;2022-11-04T03:20:17;13.20;99.90
44166;DHT22;30476;53.468;9.826;2022-11-04T03:22:45;13.20;99.90
44166;DHT22;30476;53.468;9.826;2022-11-04T03:25:11;13.30;99.90
44166;DHT22;30476;53.468;9.826;2022-11-04T03:28:21;13.30;99.90
44166;DHT22;30476;53.468;9.826;2022-11-04T03:30:53;13.20;99.90
44166;DHT22;30476;53.468;9.826;2022-11-04T03:35:56;13.30;99.90
44166;DHT22;30476;53.468;9.826;2022-11-04T03:38:23;13.20;99.90
44166;DHT22;30476;53.468;9.826;2022-11-04T03:40:49;13.20;99.90
44166;DHT22;30476;53.468;9.826;2022-11-04T03:43:20;13.20;99.90
44166;DHT22;30476;53.468;9.826;2022-11-04T03:45:47;13.30;99.90
44166;DHT22;30476;53.468;9.826;2022-11-04T03:48:14;13.20;99.90
44166;DHT22;30476;53.468;9.826;2022-11-04T03:50:43;13.20;99.90
44166;DHT22;30476;53.468;9.826;2022-11-04T03:53:10;13.20;99.90
44166;DHT22;30476;53.468;9.826;2022-11-04T03:58:48;13.20;99.90
44166;DHT22;30476;53.468;9.826;2022-11-04T04:04:26;13.20;99.90
44166;DHT22;30476;53.468;9.826;2022-11-04T04:06:57;13.20;99.90
44166;DHT22;30476;53.468;9.826;2022-11-04T04:09:38;13.20;99.90
44166;DHT22;30476;53.468;9.826;2022-11-04T04:12:32;13.20;99.90
44166;DHT22;30476;53.468;9.826;2022-11-04T04:15:02;13.10;99.90
44166;DHT22;30476;53.468;9.826;2022-11-04T04:17:36;13.20;99.90
44166;DHT22;30476;53.468;9.826;2022-11-04T04:20:07;13.20;99.90
44166;DHT22;30476;53.468;9.826;2022-11-04T04:22:40;13.20;99.90
44166;DHT22;30476;53.468;9.826;2022-11-04T04:25:09;13.20;99.90
44166;DHT22;30476;53.468;9.826;2022-11-04T04:27:55;13.20;99.90
44166;DHT22;30476;53.468;9.826;2022-11-04T04:30:22;13.20;99.90
44166;DHT22;30476;53.468;9.826;2022-11-04T04:32:51;13.20;99.90
44166;DHT22;30476;53.468;9.826;2022-11-04T04:35:26;13.10;99.90
44166;DHT22;30476;53.468;9.826;2022-11-04T04:38:25;13.20;99.90
44166;DHT22;30476;53.468;9.826;2022-11-04T04:43:58;13.20;99.80
44166;DHT22;30476;53.468;9.826;2022-11-04T04:46:43;13.20;99.80
44166;DHT22;30476;53.468;9.826;2022-11-04T04:49:10;13.10;99.60
44166;DHT22;30476;53.468;9.826;2022-11-04T04:51:40;13.10;99.90
44166;DHT22;30476;53.468;9.826;2022-11-04T04:54:07;13.10;99.60
44166;DHT22;30476;53.468;9.826;2022-11-04T04:56:33;13.00;99.50
44166;DHT22;30476;53.468;9.826;2022-11-04T04:58:59;13.00;99.50
44166;DHT22;30476;53.468;9.826;2022-11-04T05:01:25;13.00;99.50
44166;DHT22;30476;53.468;9.826;2022-11-04T05:03:50;13.00;99.50
44166;DHT22;30476;53.468;9.826;2022-11-04T05:06:16;13.00;99.50
44166;DHT22;30476;53.468;9.826;2022-11-04T05:08:42;13.00;99.50
44166;DHT22;30476;53.468;9.826;2022-11-04T05:11:08;13.00;99.40
44166;DHT22;30476;53.468;9.826;2022-11-04T05:13:34;12.90;99.30
44166;DHT22;30476;53.468;9.826;2022-11-04T05:16:05;12.90;99.40
44166;DHT22;30476;53.468;9.826;2022-11-04T05:18:31;12.90;99.40
44166;DHT22;30476;53.468;9.826;2022-11-04T05:20:57;12.90;99.50
44166;DHT22;30476;53.468;9.826;2022-11-04T05:23:23;12.90;99.50
44166;DHT22;30476;53.468;9.826;2022-11-04T05:25:49;12.90;99.40
44166;DHT22;30476;53.468;9.826;2022-11-04T05:28:15;12.90;99.40
44166;DHT22;30476;53.468;9.826;2022-11-04T05:30:40;12.90;99.40
44166;DHT22;30476;53.468;9.826;2022-11-04T05:33:06;12.90;99.40
44166;DHT22;30476;53.468;9.826;2022-11-04T05:35:32;13.00;99.50
44166;DHT22;30476;53.468;9.826;2022-11-04T05:37:58;12.90;99.50
44166;DHT22;30476;53.468;9.826;2022-11-04T05:40:24;12.90;99.50
44166;DHT22;30476;53.468;9.826;2022-11-04T05:42:50;12.90;99.50
44166;DHT22;30476;53.468;9.826;2022-11-04T05:45:16;13.00;99.50
44166;DHT22;30476;53.468;9.826;2022-11-04T05:47:42;12.90;99.50
44166;DHT22;30476;53.468;9.826;2022-11-04T05:50:08;12.90;99.60
44166;DHT22;30476;53.468;9.826;2022-11-04T05:52:33;12.90;99.60
44166;DHT22;30476;53.468;9.826;2022-11-04T05:54:59;12.90;99.50
44166;DHT22;30476;53.468;9.826;2022-11-04T05:57:25;13.00;99.50
44166;DHT22;30476;53.468;9.826;2022-11-04T05:59:51;12.90;99.40
44166;DHT22;30476;53.468;9.826;2022-11-04T06:02:16;12.90;99.50
44166;DHT22;30476;53.468;9.826;2022-11-04T06:04:42;12.90;99.50
44166;DHT22;30476;53.468;9.826;2022-11-04T06:07:08;12.80;99.50
44166;DHT22;30476;53.468;9.826;2022-11-04T06:09:34;12.80;99.50
44166;DHT22;30476;53.468;9.826;2022-11-04T06:12:13;12.90;99.50
44166;DHT22;30476;53.468;9.826;2022-11-04T06:14:40;12.80;99.50
44166;DHT22;30476;53.468;9.826;2022-11-04T06:17:07;12.90;99.60
44166;DHT22;30476;53.468;9.826;2022-11-04T06:19:33;12.90;99.60
44166;DHT22;30476;53.468;9.826;2022-11-04T06:22:00;12.90;99.70
44166;DHT22;30476;53.468;9.826;2022-11-04T06:24:26;12.80;99.60
44166;DHT22;30476;53.468;9.826;2022-11-04T06:26:51;13.00;99.70
44166;DHT22;30476;53.468;9.826;2022-11-04T06:29:17;12.90;99.70
44166;DHT22;30476;53.468;9.826;2022-11-04T06:31:43;12.80;99.70
44166;DHT22;30476;53.468;9.826;2022-11-04T06:34:09;12.80;99.70
44166;DHT22;30476;53.468;9.826;2022-11-04T06:36:34;12.80;99.70
44166;DHT22;30476;53.468;9.826;2022-11-04T06:39:01;12.90;99.70
44166;DHT22;30476;53.468;9.826;2022-11-04T06:41:28;12.80;99.70
44166;DHT22;30476;53.468;9.826;2022-11-04T06:43:54;12.80;99.80
44166;DHT22;30476;53.468;9.826;2022-11-04T06:46:35;12.80;99.80
44166;DHT22;30476;53.468;9.826;2022-11-04T06:49:01;12.80;99.80
44166;DHT22;30476;53.468;9.826;2022-11-04T06:51:27;12.90;99.80
44166;DHT22;30476;53.468;9.826;2022-11-04T06:53:53;12.90;99.70
44166;DHT22;30476;53.468;9.826;2022-11-04T06:56:19;12.80;99.60
44166;DHT22;30476;53.468;9.826;2022-11-04T06:58:48;12.90;99.70
44166;DHT22;30476;53.468;9.826;2022-11-04T07:01:16;12.80;99.60
44166;DHT22;30476;53.468;9.826;2022-11-04T07:03:42;12.80;99.60
44166;DHT22;30476;53.468;9.826;2022-11-04T07:06:09;12.70;99.70
44166;DHT22;30476;53.468;9.826;2022-11-04T07:08:35;12.70;99.80
44166;DHT22;30476;53.468;9.826;2022-11-04T07:11:02;12.70;99.90
44166;DHT22;30476;53.468;9.826;2022-11-04T07:13:28;12.60;99.90
44166;DHT22;30476;53.468;9.826;2022-11-04T07:15:54;12.70;99.90
44166;DHT22;30476;53.468;9.826;2022-11-04T07:18:19;12.60;99.90
44166;DHT22;30476;53.468;9.826;2022-11-04T07:20:46;12.50;99.90
44166;DHT22;30476;53.468;9.826;2022-11-04T07:23:12;12.50;99.90
44166;DHT22;30476;53.468;9.826;2022-11-04T07:25:38;12.60;99.90
44166;DHT22;30476;53.468;9.826;2022-11-04T07:28:03;12.50;99.90
44166;DHT22;30476;53.468;9.826;2022-11-04T07:30:30;12.50;99.90
44166;DHT22;30476;53.468;9.826;2022-11-04T07:32:56;12.60;99.90
44166;DHT22;30476;53.468;9.826;2022-11-04T07:35:22;12.50;99.90
44166;DHT22;30476;53.468;9.826;2022-11-04T07:37:48;12.60;99.90
44166;DHT22;30476;53.468;9.826;2022-11-04T07:40:14;12.50;99.90
44166;DHT22;30476;53.468;9.826;2022-11-04T07:42:40;12.50;99.90
44166;DHT22;30476;53.468;9.826;2022-11-04T07:45:06;12.40;99.90
44166;DHT22;30476;53.468;9.826;2022-11-04T07:47:32;12.40;99.90
44166;DHT22;30476;53.468;9.826;2022-11-04T07:49:58;12.50;99.90
44166;DHT22;30476;53.468;9.826;2022-11-04T07:52:24;12.40;99.90
44166;DHT22;30476;53.468;9.826;2022-11-04T07:54:50;12.40;99.90
44166;DHT22;30476;53.468;9.826;2022-11-04T07:57:16;12.50;99.90
44166;DHT22;30476;53.468;9.826;2022-11-04T07:59:42;12.40;99.90
44166;DHT22;30476;53.468;9.826;2022-11-04T08:02:09;12.40;99.90
44166;DHT22;30476;53.468;9.826;2022-11-04T08:04:36;12.40;99.90
44166;DHT22;30476;53.468;9.826;2022-11-04T08:07:02;12.50;99.90
44166;DHT22;30476;53.468;9.826;2022-11-04T08:09:28;12.40;99.90
44166;DHT22;30476;53.468;9.826;2022-11-04T08:11:53;12.50;99.90
44166;DHT22;30476;53.468;9.826;2022-11-04T08:14:19;12.40;99.90
44166;DHT22;30476;53.468;9.826;2022-11-04T08:16:45;12.50;99.90
44166;DHT22;30476;53.468;9.826;2022-11-04T08:19:14;12.50;99.90
44166;DHT22;30476;53.468;9.826;2022-11-04T08:21:40;12.50;99.90
44166;DHT22;30476;53.468;9.826;2022-11-04T08:24:06;12.50;99.90
44166;DHT22;30476;53.468;9.826;2022-11-04T08:26:31;12.50;99.90
44166;DHT22;30476;53.468;9.826;2022-11-04T08:28:57;12.50;99.90
44166;DHT22;30476;53.468;9.826;2022-11-04T08:31:26;12.50;99.90
44166;DHT22;30476;53.468;9.826;2022-11-04T08:33:54;12.60;99.90
44166;DHT22;30476;53.468;9.826;2022-11-04T08:36:24;12.70;99.90
44166;DHT22;30476;53.468;9.826;2022-11-04T08:38:50;12.60;99.90
44166;DHT22;30476;53.468;9.826;2022-11-04T08:41:19;12.60;99.90
44166;DHT22;30476;53.468;9.826;2022-11-04T08:43:46;12.60;99.90
44166;DHT22;30476;53.468;9.826;2022-11-04T08:46:12;12.60;99.80
44166;DHT22;30476;53.468;9.826;2022-11-04T08:48:39;12.80;99.80
44166;DHT22;30476;53.468;9.826;2022-11-04T08:51:10;12.80;99.80
44166;DHT22;30476;53.468;9.826;2022-11-04T08:53:37;12.80;99.50
44166;DHT22;30476;53.468;9.826;2022-11-04T08:56:10;12.80;99.50
44166;DHT22;30476;53.468;9.826;2022-11-04T08:58:36;12.80;99.50
44166;DHT22;30476;53.468;9.826;2022-11-04T09:01:03;12.80;99.50
44166;DHT22;30476;53.468;9.826;2022-11-04T09:03:29;12.90;99.50
44166;DHT22;30476;53.468;9.826;2022-11-04T09:05:56;12.80;99.30
44166;DHT22;30476;53.468;9.826;2022-11-04T09:08:22;12.90;99.30
44166;DHT22;30476;53.468;9.826;2022-11-04T09:10:48;12.90;99.30
44166;DHT22;30476;53.468;9.826;2022-11-04T09:13:14;12.90;99.20
44166;DHT22;30476;53.468;9.826;2022-11-04T09:15:41;13.00;99.20
44166;DHT22;30476;53.468;9.826;2022-11-04T09:18:07;12.90;99.10
44166;DHT22;30476;53.468;9.826;2022-11-04T09:20:33;12.90;99.10
44166;DHT22;30476;53.468;9.826;2022-11-04T09:23:03;13.00;99.10
44166;DHT22;30476;53.468;9.826;2022-11-04T09:25:29;12.90;99.00
44166;DHT22;30476;53.468;9.826;2022-11-04T09:27:58;13.10;99.10
44166;DHT22;30476;53.468;9.826;2022-11-04T09:30:24;13.10;99.10
44166;DHT22;30476;53.468;9.826;2022-11-04T09:32:50;13.10;99.00
44166;DHT22;30476;53.468;9.826;2022-11-04T09:35:15;13.30;98.90
44166;DHT22;30476;53.468;9.826;2022-11-04T09:37:42;13.20;98.90
44166;DHT22;30476;53.468;9.826;2022-11-04T09:40:17;13.20;98.80
44166;DHT22;30476;53.468;9.826;2022-11-04T09:42:52;13.10;98.80
44166;DHT22;30476;53.468;9.826;2022-11-04T09:45:28;13.10;99.10
44166;DHT22;30476;53.468;9.826;2022-11-04T09:47:58;13.10;98.80
44166;DHT22;30476;53.468;9.826;2022-11-04T09:50:28;13.20;98.90
44166;DHT22;30476;53.468;9.826;2022-11-04T09:53:08;13.20;99.00
44166;DHT22;30476;53.468;9.826;2022-11-04T09:55:44;13.10;98.90
44166;DHT22;30476;53.468;9.826;2022-11-04T09:58:12;13.10;99.10
44166;DHT22;30476;53.468;9.826;2022-11-04T10:00:41;13.10;99.10
44166;DHT22;30476;53.468;9.826;2022-11-04T10:03:47;13.20;99.10
44166;DHT22;30476;53.468;9.826;2022-11-04T10:06:37;13.20;99.30
44166;DHT22;30476;53.468;9.826;2022-11-04T10:12:28;13.30;99.00
44166;DHT22;30476;53.468;9.826;2022-11-04T10:15:29;13.30;99.00
44166;DHT22;30476;53.468;9.826;2022-11-04T10:18:24;13.30;98.90
44166;DHT22;30476;53.468;9.826;2022-11-04T10:21:22;13.50;99.00
44166;DHT22;30476;53.468;9.826;2022-11-04T10:27:02;13.50;98.70
44166;DHT22;30476;53.468;9.826;2022-11-04T10:29:47;13.60;98.70
44166;DHT22;30476;53.468;9.826;2022-11-04T10:32:28;13.70;98.60
44166;DHT22;30476;53.468;9.826;2022-11-04T10:34:59;13.80;98.40
44166;DHT22;30476;53.468;9.826;2022-11-04T10:37:26;13.90;98.60
44166;DHT22;30476;53.468;9.826;2022-11-04T10:40:01;14.00;98.80
44166;DHT22;30476;53.468;9.826;2022-11-04T10:42:31;14.10;98.80
44166;DHT22;30476;53.468;9.826;2022-11-04T10:44:57;14.40;98.50
44166;DHT22;30476;53.468;9.826;2022-11-04T10:47:44;14.40;98.10
44166;DHT22;30476;53.468;9.826;2022-11-04T10:50:17;14.50;98.10
44166;DHT22;30476;53.468;9.826;2022-11-04T10:52:45;14.70;97.60
44166;DHT22;30476;53.468;9.826;2022-11-04T10:58:17;14.80;97.20
44166;DHT22;30476;53.468;9.826;2022-11-04T11:00:43;14.90;97.20
44166;DHT22;30476;53.468;9.826;2022-11-04T11:06:10;15.10;96.90
44166;DHT22;30476;53.468;9.826;2022-11-04T11:08:37;15.30;96.80
44166;DHT22;30476;53.468;9.826;2022-11-04T11:11:07;15.30;96.20
44166;DHT22;30476;53.468;9.826;2022-11-04T11:13:35;15.40;96.70
44166;DHT22;30476;53.468;9.826;2022-11-04T11:16:17;15.50;96.80
44166;DHT22;30476;53.468;9.826;2022-11-04T11:18:44;15.80;97.10
44166;DHT22;30476;53.468;9.826;2022-11-04T11:21:15;16.00;96.00
44166;DHT22;30476;53.468;9.826;2022-11-04T11:23:47;16.10;96.00
44166;DHT22;30476;53.468;9.826;2022-11-04T11:26:21;16.30;96.10
44166;DHT22;30476;53.468;9.826;2022-11-04T11:28:55;16.40;96.00
44166;DHT22;30476;53.468;9.826;2022-11-04T11:31:23;16.50;95.50
44166;DHT22;30476;53.468;9.826;2022-11-04T11:33:56;16.70;95.10
44166;DHT22;30476;53.468;9.826;2022-11-04T11:36:26;16.80;95.50
44166;DHT22;30476;53.468;9.826;2022-11-04T11:39:20;17.00;95.40
44166;DHT22;30476;53.468;9.826;2022-11-04T11:41:58;17.10;95.20
44166;DHT22;30476;53.468;9.826;2022-11-04T11:44:36;17.30;94.10
44166;DHT22;30476;53.468;9.826;2022-11-04T11:49:44;17.40;93.60
44166;DHT22;30476;53.468;9.826;2022-11-04T11:52:32;17.50;93.60
44166;DHT22;30476;53.468;9.826;2022-11-04T12:00:51;17.30;93.50
44166;DHT22;30476;53.468;9.826;2022-11-04T12:03:43;17.20;93.20
44166;DHT22;30476;53.468;9.826;2022-11-04T12:06:43;17.10;93.30
44166;DHT22;30476;53.468;9.826;2022-11-04T12:12:24;16.90;93.40
44166;DHT22;30476;53.468;9.826;2022-11-04T12:23:35;16.80;93.60
44166;DHT22;30476;53.468;9.826;2022-11-04T12:26:26;16.80;93.30
44166;DHT22;30476;53.468;9.826;2022-11-04T12:29:13;16.80;93.30
44166;DHT22;30476;53.468;9.826;2022-11-04T12:31:50;16.90;93.70
44166;DHT22;30476;53.468;9.826;2022-11-04T12:40:28;16.90;93.70
44166;DHT22;30476;53.468;9.826;2022-11-04T12:42:59;17.00;93.50
44166;DHT22;30476;53.468;9.826;2022-11-04T12:45:35;17.00;93.60
44166;DHT22;30476;53.468;9.826;2022-11-04T12:48:11;17.00;93.20
44166;DHT22;30476;53.468;9.826;2022-11-04T12:50:57;16.90;92.90
44166;DHT22;30476;53.468;9.826;2022-11-04T12:56:38;16.90;93.70
44166;DHT22;30476;53.468;9.826;2022-11-04T12:59:23;16.90;93.90
44166;DHT22;30476;53.468;9.826;2022-11-04T13:01:55;17.00;93.30
44166;DHT22;30476;53.468;9.826;2022-11-04T13:04:33;17.00;93.00
44166;DHT22;30476;53.468;9.826;2022-11-04T13:07:03;17.00;93.10
44166;DHT22;30476;53.468;9.826;2022-11-04T13:09:35;17.00;93.20
44166;DHT22;30476;53.468;9.826;2022-11-04T13:12:10;17.00;93.10
44166;DHT22;30476;53.468;9.826;2022-11-04T13:14:49;16.90;93.30
44166;DHT22;30476;53.468;9.826;2022-11-04T13:17:22;16.90;93.10
44166;DHT22;30476;53.468;9.826;2022-11-04T13:19:54;16.80;93.10
44166;DHT22;30476;53.468;9.826;2022-11-04T13:22:27;16.80;93.20
44166;DHT22;30476;53.468;9.826;2022-11-04T13:25:03;16.70;92.80
44166;DHT22;30476;53.468;9.826;2022-11-04T13:27:36;16.70;93.00
44166;DHT22;30476;53.468;9.826;2022-11-04T13:30:18;16.70;93.10
44166;DHT22;30476;53.468;9.826;2022-11-04T13:32:58;16.60;93.30
44166;DHT22;30476;53.468;9.826;2022-11-04T13:38:52;16.50;93.00
44166;DHT22;30476;53.468;9.826;2022-11-04T13:44:24;16.50;93.10
44166;DHT22;30476;53.468;9.826;2022-11-04T13:46:54;16.40;93.10
44166;DHT22;30476;53.468;9.826;2022-11-04T13:49:25;16.40;93.20
44166;DHT22;30476;53.468;9.826;2022-11-04T13:52:10;16.30;93.20
44166;DHT22;30476;53.468;9.826;2022-11-04T13:54:43;16.30;93.00
44166;DHT22;30476;53.468;9.826;2022-11-04T13:57:17;16.20;92.90
44166;DHT22;30476;53.468;9.826;2022-11-04T14:02:54;16.10;93.10
44166;DHT22;30476;53.468;9.826;2022-11-04T14:18:29;15.80;92.70
44166;DHT22;30476;53.468;9.826;2022-11-04T14:21:18;15.80;92.90
44166;DHT22;30476;53.468;9.826;2022-11-04T14:23:53;15.70;93.00
44166;DHT22;30476;53.468;9.826;2022-11-04T14:26:27;15.70;93.10
44166;DHT22;30476;53.468;9.826;2022-11-04T14:29:15;15.70;93.10
44166;DHT22;30476;53.468;9.826;2022-11-04T14:31:47;15.60;93.20
44166;DHT22;30476;53.468;9.826;2022-11-04T14:34:27;15.60;93.20
44166;DHT22;30476;53.468;9.826;2022-11-04T14:36:59;15.50;93.40
44166;DHT22;30476;53.468;9.826;2022-11-04T14:39:35;15.50;93.40
44166;DHT22;30476;53.468;9.826;2022-11-04T14:42:04;15.40;93.60
44166;DHT22;30476;53.468;9.826;2022-11-04T14:44:35;15.40;93.70
44166;DHT22;30476;53.468;9.826;2022-11-04T14:47:20;15.30;93.70
44166;DHT22;30476;53.468;9.826;2022-11-04T14:49:59;15.30;94.00
44166;DHT22;30476;53.468;9.826;2022-11-04T14:52:29;15.20;94.10
44166;DHT22;30476;53.468;9.826;2022-11-04T14:55:18;15.20;94.20
44166;DHT22;30476;53.468;9.826;2022-11-04T14:57:53;15.10;94.30
44166;DHT22;30476;53.468;9.826;2022-11-04T15:00:30;15.00;94.40
44166;DHT22;30476;53.468;9.826;2022-11-04T15:03:12;15.00;94.60
44166;DHT22;30476;53.468;9.826;2022-11-04T15:05:40;14.90;94.70
44166;DHT22;30476;53.468;9.826;2022-11-04T15:08:33;14.90;94.60
44166;DHT22;30476;53.468;9.826;2022-11-04T15:11:11;14.90;94.80
44166;DHT22;30476;53.468;9.826;2022-11-04T15:16:20;14.80;95.20
44166;DHT22;30476;53.468;9.826;2022-11-04T15:18:47;14.70;95.20
44166;DHT22;30476;53.468;9.826;2022-11-04T15:21:14;14.70;95.20
44166;DHT22;30476;53.468;9.826;2022-11-04T15:23:44;14.70;95.30
44166;DHT22;30476;53.468;9.826;2022-11-04T15:26:31;14.60;95.30
44166;DHT22;30476;53.468;9.826;2022-11-04T15:29:00;14.60;95.40
44166;DHT22;30476;53.468;9.826;2022-11-04T15:31:30;14.50;95.50
44166;DHT22;30476;53.468;9.826;2022-11-04T15:34:02;14.50;95.60
44166;DHT22;30476;53.468;9.826;2022-11-04T15:36:37;14.40;95.60
44166;DHT22;30476;53.468;9.826;2022-11-04T15:41:41;14.30;95.90
44166;DHT22;30476;53.468;9.826;2022-11-04T15:44:29;14.30;96.10
44166;DHT22;30476;53.468;9.826;2022-11-04T15:46:58;14.30;96.20
44166;DHT22;30476;53.468;9.826;2022-11-04T15:49:29;14.30;96.40
44166;DHT22;30476;53.468;9.826;2022-11-04T15:51:59;14.30;96.50
44166;DHT22;30476;53.468;9.826;2022-11-04T15:54:29;14.20;96.40
44166;DHT22;30476;53.468;9.826;2022-11-04T15:56:58;14.20;96.40
44166;DHT22;30476;53.468;9.826;2022-11-04T15:59:33;14.10;96.30
44166;DHT22;30476;53.468;9.826;2022-11-04T16:02:01;14.10;96.30
44166;DHT22;30476;53.468;9.826;2022-11-04T16:04:28;14.10;96.50
44166;DHT22;30476;53.468;9.826;2022-11-04T16:09:47;14.10;96.60
44166;DHT22;30476;53.468;9.826;2022-11-04T16:14:53;13.90;96.50
44166;DHT22;30476;53.468;9.826;2022-11-04T16:17:19;13.90;96.70
44166;DHT22;30476;53.468;9.826;2022-11-04T16:20:00;13.90;96.70
44166;DHT22;30476;53.468;9.826;2022-11-04T16:22:31;13.90;96.70
44166;DHT22;30476;53.468;9.826;2022-11-04T16:24:59;13.80;96.60
44166;DHT22;30476;53.468;9.826;2022-11-04T16:27:29;13.90;96.70
44166;DHT22;30476;53.468;9.826;2022-11-04T16:30:16;13.80;96.80
44166;DHT22;30476;53.468;9.826;2022-11-04T16:32:47;13.70;96.90
44166;DHT22;30476;53.468;9.826;2022-11-04T16:35:17;13.60;96.90
44166;DHT22;30476;53.468;9.826;2022-11-04T16:37:43;13.60;96.80
44166;DHT22;30476;53.468;9.826;2022-11-04T16:40:10;13.50;96.90
44166;DHT22;30476;53.468;9.826;2022-11-04T16:42:36;13.50;97.00
44166;DHT22;30476;53.468;9.826;2022-11-04T16:45:03;13.30;96.90
44166;DHT22;30476;53.468;9.826;2022-11-04T16:47:29;13.30;97.00
44166;DHT22;30476;53.468;9.826;2022-11-04T16:50:01;13.30;97.10
44166;DHT22;30476;53.468;9.826;2022-11-04T16:52:27;13.10;97.10
44166;DHT22;30476;53.468;9.826;2022-11-04T16:54:53;13.10;97.20
44166;DHT22;30476;53.468;9.826;2022-11-04T16:57:21;13.00;97.30
44166;DHT22;30476;53.468;9.826;2022-11-04T16:59:48;13.00;97.40
44166;DHT22;30476;53.468;9.826;2022-11-04T17:02:22;13.00;97.60
44166;DHT22;30476;53.468;9.826;2022-11-04T17:04:48;12.90;97.50
44166;DHT22;30476;53.468;9.826;2022-11-04T17:07:14;12.90;97.60
44166;DHT22;30476;53.468;9.826;2022-11-04T17:09:40;12.80;97.60
44166;DHT22;30476;53.468;9.826;2022-11-04T17:12:06;12.80;97.70
44166;DHT22;30476;53.468;9.826;2022-11-04T17:14:32;12.80;97.80
44166;DHT22;30476;53.468;9.826;2022-11-04T17:16:57;12.70;97.80
44166;DHT22;30476;53.468;9.826;2022-11-04T17:19:23;12.60;97.80
44166;DHT22;30476;53.468;9.826;2022-11-04T17:21:49;12.60;97.80
44166;DHT22;30476;53.468;9.826;2022-11-04T17:24:15;12.50;97.90
44166;DHT22;30476;53.468;9.826;2022-11-04T17:26:41;12.60;97.90
44166;DHT22;30476;53.468;9.826;2022-11-04T17:29:07;12.50;98.00
44166;DHT22;30476;53.468;9.826;2022-11-04T17:31:32;12.50;98.10
44166;DHT22;30476;53.468;9.826;2022-11-04T17:33:58;12.40;98.20
44166;DHT22;30476;53.468;9.826;2022-11-04T17:36:24;12.30;98.20
44166;DHT22;30476;53.468;9.826;2022-11-04T17:38:50;12.30;98.30
44166;DHT22;30476;53.468;9.826;2022-11-04T17:41:16;12.30;98.30